STL weather

Public forecast

Using degrees Fahrenheit for public forecast. Weather courtesy of forecast.io.

Current aviation weather report (METAR) for St Louis Lambert International Airport

Retrieved 2020/08/13 01:51 UTC (11 minutes ago):

KSTL 130151Z 12004KT 10SM FEW035 FEW250 26/20 A3003 RMK AO2 SLP157 T02610200

Aviation forecast (TAF) for St Louis Lambert International Airport

Retrieved 2020-08-13 00:22 UTC (2 hours ago):

TAF KSTL 122320Z 1300/1406 12006KT P6SM SCT250 FM131200 07005KT P6SM BKN020 FM131800 07007KT P6SM BKN035